createdAt,value
2022-08-05T00:00:54.055Z,21.31
2022-08-05T00:03:20.875Z,21.22
2022-08-05T00:06:05.646Z,21.14
2022-08-05T00:08:36.580Z,21.05
2022-08-05T00:11:20.544Z,20.94
2022-08-05T00:13:55.857Z,20.85
2022-08-05T00:16:36.453Z,20.79
2022-08-05T00:19:10.243Z,20.75
2022-08-05T00:21:37.711Z,20.72
2022-08-05T00:24:10.363Z,20.65
2022-08-05T00:26:38.238Z,20.53
2022-08-05T00:29:05.637Z,20.46
2022-08-05T00:31:53.862Z,20.36
2022-08-05T00:34:54.217Z,20.24
2022-08-05T00:37:13.257Z,20.12
2022-08-05T00:39:58.641Z,20.05
2022-08-05T00:42:34.300Z,19.96
2022-08-05T00:45:02.337Z,19.88
2022-08-05T00:47:31.617Z,19.84
2022-08-05T00:50:17.083Z,19.78
2022-08-05T00:52:45.535Z,19.75
2022-08-05T00:55:14.040Z,19.73
2022-08-05T00:57:58.371Z,19.69
2022-08-05T01:00:28.675Z,19.62
2022-08-05T01:02:56.816Z,19.56
2022-08-05T01:05:24.210Z,19.54
2022-08-05T01:08:30.624Z,19.49
2022-08-05T01:11:22.495Z,19.44
2022-08-05T01:14:08.856Z,19.42
2022-08-05T01:16:52.166Z,19.39
2022-08-05T01:19:30.131Z,19.38
2022-08-05T01:22:24.106Z,19.39
2022-08-05T01:24:51.537Z,19.38
2022-08-05T01:27:56.363Z,19.40
2022-08-05T01:30:33.498Z,19.42
2022-08-05T01:33:06.206Z,19.41
2022-08-05T01:35:50.707Z,19.43
2022-08-05T01:38:24.899Z,19.43
2022-08-05T01:40:58.893Z,19.42
2022-08-05T01:43:28.128Z,19.40
2022-08-05T01:45:57.153Z,19.38
2022-08-05T01:48:27.314Z,19.36
2022-08-05T01:50:56.802Z,19.35
2022-08-05T01:53:54.724Z,19.34
2022-08-05T01:58:10.630Z,19.32
2022-08-05T01:59:04.913Z,19.29
2022-08-05T02:01:37.977Z,19.27
2022-08-05T02:04:10.354Z,19.27
2022-08-05T02:06:39.425Z,19.26
2022-08-05T02:09:07.568Z,19.24
2022-08-05T02:12:01.450Z,19.24
2022-08-05T02:14:32.608Z,19.26
2022-08-05T02:17:16.963Z,19.29
2022-08-05T02:20:01.882Z,19.32
2022-08-05T02:22:31.640Z,19.31
2022-08-05T02:25:35.985Z,19.27
2022-08-05T02:28:28.807Z,19.24
2022-08-05T02:31:04.554Z,19.23
2022-08-05T02:33:38.791Z,19.26
2022-08-05T02:36:13.699Z,19.28
2022-08-05T02:38:44.751Z,19.30
2022-08-05T02:41:22.748Z,19.29
2022-08-05T02:44:06.241Z,19.28
2022-08-05T02:46:53.206Z,19.25
2022-08-05T02:49:36.400Z,19.25
2022-08-05T02:52:09.786Z,19.22
2022-08-05T02:54:41.142Z,19.17
2022-08-05T02:58:09.832Z,19.10
2022-08-05T02:59:59.345Z,19.03
2022-08-05T03:02:33.882Z,18.99
2022-08-05T03:05:02.057Z,18.97
2022-08-05T03:08:00.271Z,18.97
2022-08-05T03:10:24.509Z,18.96
2022-08-05T03:12:54.002Z,18.97
2022-08-05T03:15:23.407Z,18.98
2022-08-05T03:17:54.048Z,18.97
2022-08-05T03:20:24.319Z,18.93
2022-08-05T03:22:52.414Z,18.87
2022-08-05T03:25:32.586Z,18.81
2022-08-05T03:28:02.919Z,18.74
2022-08-05T03:30:34.232Z,18.71
2022-08-05T03:33:06.321Z,18.69
2022-08-05T03:35:41.241Z,18.71
2022-08-05T03:38:11.178Z,18.72
2022-08-05T03:40:47.243Z,18.73
2022-08-05T03:44:08.041Z,18.73
2022-08-05T03:46:08.491Z,18.74
2022-08-05T03:48:36.830Z,18.74
2022-08-05T03:52:38.510Z,18.75
2022-08-05T03:55:06.751Z,18.75
2022-08-05T03:57:16.425Z,18.78
2022-08-05T03:59:54.554Z,18.80
2022-08-05T04:02:38.577Z,18.81
2022-08-05T04:05:13.056Z,18.82
2022-08-05T04:07:52.867Z,18.84
2022-08-05T04:10:27.639Z,18.87
2022-08-05T04:12:56.358Z,18.88
2022-08-05T04:15:27.833Z,18.89
2022-08-05T04:18:03.730Z,18.89
2022-08-05T04:20:33.996Z,18.90
2022-08-05T04:23:01.187Z,18.91
2022-08-05T04:25:56.789Z,18.92
2022-08-05T04:28:15.178Z,18.92
2022-08-05T04:30:44.863Z,18.92
2022-08-05T04:33:11.782Z,18.92
2022-08-05T04:36:09.455Z,18.92
2022-08-05T04:38:39.555Z,18.93
2022-08-05T04:41:07.356Z,18.95
2022-08-05T04:43:36.098Z,18.99
2022-08-05T04:46:07.200Z,19.02
2022-08-05T04:48:33.870Z,19.04
2022-08-05T04:51:03.513Z,19.06
2022-08-05T04:53:38.899Z,19.05
2022-08-05T04:56:32.659Z,19.04
2022-08-05T04:58:56.460Z,19.02
2022-08-05T05:01:33.660Z,18.98
2022-08-05T05:04:10.429Z,18.99
2022-08-05T05:06:44.308Z,19.02
2022-08-05T05:09:14.083Z,19.04
2022-08-05T05:11:53.261Z,19.10
2022-08-05T05:14:27.810Z,19.12
2022-08-05T05:16:59.879Z,19.18
2022-08-05T05:19:36.445Z,19.21
2022-08-05T05:22:24.533Z,19.32
2022-08-05T05:24:59.993Z,19.42
2022-08-05T05:27:41.311Z,19.50
2022-08-05T05:30:28.793Z,19.60
2022-08-05T05:32:57.089Z,19.68
2022-08-05T05:35:29.103Z,19.75
2022-08-05T05:38:09.071Z,19.81
2022-08-05T05:40:36.759Z,19.92
2022-08-05T05:43:03.866Z,20.05
2022-08-05T05:45:35.878Z,20.13
2022-08-05T05:48:06.625Z,20.14
2022-08-05T05:50:44.062Z,20.07
2022-08-05T05:53:21.136Z,19.96
2022-08-05T05:55:52.311Z,19.83
2022-08-05T05:58:31.395Z,19.67
2022-08-05T06:01:04.934Z,19.56
2022-08-05T06:04:01.271Z,19.49
2022-08-05T06:06:28.001Z,19.41
2022-08-05T06:09:00.417Z,19.34
2022-08-05T06:11:28.813Z,19.25
2022-08-05T06:13:56.675Z,19.17
2022-08-05T06:16:28.397Z,19.09
2022-08-05T06:19:00.217Z,18.99
2022-08-05T06:21:36.436Z,18.88
2022-08-05T06:24:11.468Z,18.80
2022-08-05T06:26:51.813Z,18.69
2022-08-05T06:29:25.008Z,18.53
2022-08-05T06:32:25.465Z,18.31
2022-08-05T06:34:56.326Z,18.05
2022-08-05T06:37:56.788Z,17.85
2022-08-05T06:40:12.907Z,17.71
2022-08-05T06:42:40.927Z,17.66
2022-08-05T06:45:09.361Z,17.67
2022-08-05T06:48:36.081Z,17.68
2022-08-05T06:50:26.556Z,17.70
2022-08-05T06:53:03.585Z,17.72
2022-08-05T06:55:38.495Z,17.74
2022-08-05T06:58:30.098Z,17.76
2022-08-05T07:00:59.641Z,17.78
2022-08-05T07:03:32.960Z,17.79
2022-08-05T07:06:06.126Z,17.79
2022-08-05T07:08:42.798Z,17.82
2022-08-05T07:11:15.244Z,17.87
2022-08-05T07:14:20.379Z,17.92
2022-08-05T07:17:58.677Z,18.01
2022-08-05T07:20:31.536Z,18.13
2022-08-05T07:22:35.059Z,18.27
2022-08-05T07:25:22.130Z,18.39
2022-08-05T07:27:58.346Z,18.48
2022-08-05T07:30:32.920Z,18.55
2022-08-05T07:33:05.236Z,18.65
2022-08-05T07:35:55.786Z,18.73
2022-08-05T07:38:33.288Z,18.80
2022-08-05T07:42:07.246Z,18.88
2022-08-05T07:44:02.521Z,18.96
2022-08-05T07:46:32.375Z,19.06
2022-08-05T07:49:05.783Z,19.09
2022-08-05T07:51:37.399Z,19.08
2022-08-05T07:54:10.076Z,19.09
2022-08-05T07:57:02.421Z,19.10
2022-08-05T07:59:38.825Z,19.19
2022-08-05T08:02:15.601Z,19.32
2022-08-05T08:04:45.906Z,19.41
2022-08-05T08:07:13.701Z,19.52
2022-08-05T08:09:40.820Z,19.59
2022-08-05T08:12:35.057Z,19.63
2022-08-05T08:14:55.025Z,19.60
2022-08-05T08:17:22.250Z,19.54
2022-08-05T08:20:43.976Z,19.40
2022-08-05T08:22:37.581Z,19.23
2022-08-05T08:25:15.671Z,19.24
2022-08-05T08:27:47.431Z,19.35
2022-08-05T08:30:29.766Z,19.48
2022-08-05T08:33:08.216Z,19.66
2022-08-05T08:35:41.522Z,19.76
2022-08-05T08:38:32.245Z,19.82
2022-08-05T08:41:16.153Z,19.88
2022-08-05T08:45:18.522Z,20.01
2022-08-05T08:46:34.491Z,20.35
2022-08-05T08:50:06.025Z,20.42
2022-08-05T08:52:13.068Z,20.25
2022-08-05T08:54:43.041Z,20.02
2022-08-05T08:57:13.539Z,19.88
2022-08-05T08:59:47.032Z,19.80
2022-08-05T09:02:16.633Z,19.63
2022-08-05T09:04:58.280Z,19.52
2022-08-05T09:07:39.825Z,19.50
2022-08-05T09:10:20.564Z,19.54
2022-08-05T09:12:51.008Z,19.63
2022-08-05T09:15:20.378Z,19.66
2022-08-05T09:17:49.631Z,19.66
2022-08-05T09:20:36.458Z,19.67
2022-08-05T09:23:18.754Z,19.70
2022-08-05T09:26:03.068Z,19.70
2022-08-05T09:28:33.422Z,19.77
2022-08-05T09:31:44.049Z,19.93
2022-08-05T09:34:11.646Z,20.09
2022-08-05T09:36:54.930Z,20.12
2022-08-05T09:39:41.829Z,20.08
2022-08-05T09:42:17.539Z,20.09
2022-08-05T09:44:52.615Z,20.12
2022-08-05T09:47:46.606Z,20.15
2022-08-05T09:50:38.435Z,20.19
2022-08-05T09:53:05.919Z,20.24
2022-08-05T09:55:56.716Z,20.25
2022-08-05T09:58:24.172Z,20.22
2022-08-05T10:00:55.798Z,20.21
2022-08-05T10:03:24.911Z,20.18
2022-08-05T10:06:14.683Z,20.13
2022-08-05T10:08:43.118Z,20.05
2022-08-05T10:11:18.340Z,19.98
2022-08-05T10:13:49.112Z,19.92
2022-08-05T10:16:41.832Z,19.85
2022-08-05T10:19:23.546Z,19.78
2022-08-05T10:22:02.068Z,19.71
2022-08-05T10:24:33.034Z,19.62
2022-08-05T10:27:01.428Z,19.56
2022-08-05T10:30:41.080Z,19.50
2022-08-05T10:33:00.862Z,19.47
2022-08-05T10:35:04.811Z,19.43
2022-08-05T10:37:44.444Z,19.37
2022-08-05T10:40:38.963Z,19.32
2022-08-05T10:43:30.828Z,19.30
2022-08-05T10:46:07.114Z,19.27
2022-08-05T10:48:52.612Z,19.22
2022-08-05T10:51:28.486Z,18.97
2022-08-05T10:53:58.553Z,18.74
2022-08-05T10:56:30.269Z,18.52
2022-08-05T10:59:12.201Z,18.33
2022-08-05T11:01:55.522Z,18.10
2022-08-05T11:04:36.490Z,17.91
2022-08-05T11:07:06.842Z,17.84
2022-08-05T11:09:46.655Z,17.79
2022-08-05T11:12:41.233Z,17.77
2022-08-05T11:15:19.237Z,17.77
2022-08-05T11:17:59.101Z,17.76
2022-08-05T11:20:43.651Z,17.76
2022-08-05T11:24:04.181Z,17.76
2022-08-05T11:26:29.133Z,17.79
2022-08-05T11:29:11.490Z,17.84
2022-08-05T11:31:54.101Z,17.92
2022-08-05T11:34:51.787Z,18.01
2022-08-05T11:38:30.911Z,18.09
2022-08-05T11:41:13.967Z,18.19
2022-08-05T11:44:04.682Z,18.33
2022-08-05T11:47:09.283Z,18.44
2022-08-05T11:49:26.635Z,18.58
2022-08-05T11:51:54.850Z,18.76
2022-08-05T11:54:32.775Z,18.95
2022-08-05T11:57:08.482Z,19.14
2022-08-05T11:59:50.973Z,19.31
2022-08-05T12:02:23.827Z,19.37
2022-08-05T12:04:59.622Z,19.41
2022-08-05T12:08:03.457Z,19.41
2022-08-05T12:10:22.646Z,19.41
2022-08-05T12:12:58.410Z,19.39
2022-08-05T12:15:37.794Z,19.39
2022-08-05T12:18:11.001Z,19.27
2022-08-05T12:20:41.358Z,19.19
2022-08-05T12:23:09.934Z,19.02
2022-08-05T12:25:53.833Z,18.87
2022-08-05T12:28:37.918Z,18.77
2022-08-05T12:31:08.694Z,18.74
2022-08-05T12:33:37.057Z,18.75
2022-08-05T12:36:09.599Z,18.82
2022-08-05T12:38:41.329Z,18.84
2022-08-05T12:41:16.408Z,18.82
2022-08-05T12:43:57.639Z,18.80
2022-08-05T12:46:31.443Z,18.79
2022-08-05T12:49:11.994Z,18.81
2022-08-05T12:52:14.199Z,18.83
2022-08-05T12:54:47.649Z,18.85
2022-08-05T12:57:17.428Z,18.91
2022-08-05T13:01:58.320Z,19.02
2022-08-05T13:02:42.346Z,19.24
2022-08-05T13:05:15.308Z,19.42
2022-08-05T13:07:59.517Z,19.53
2022-08-05T13:10:28.630Z,19.65
2022-08-05T13:12:58.021Z,19.76
2022-08-05T13:15:42.173Z,19.88
2022-08-05T13:18:20.909Z,19.97
2022-08-05T13:20:49.970Z,20.05
2022-08-05T13:23:22.075Z,20.17
2022-08-05T13:25:58.979Z,20.33
2022-08-05T13:28:28.214Z,20.51
2022-08-05T13:30:57.108Z,20.57
2022-08-05T13:34:24.034Z,20.62
2022-08-05T13:36:14.477Z,20.66
2022-08-05T13:38:42.256Z,20.74
2022-08-05T13:41:11.506Z,20.83
2022-08-05T13:43:45.266Z,20.76
2022-08-05T13:46:43.670Z,20.68
2022-08-05T13:49:13.519Z,20.58
2022-08-05T13:51:46.254Z,20.54
2022-08-05T13:54:16.160Z,20.44
2022-08-05T13:56:50.867Z,20.29
2022-08-05T13:59:24.040Z,20.17
2022-08-05T14:01:58.038Z,20.10
2022-08-05T14:04:49.574Z,20.07
2022-08-05T14:07:25.822Z,20.09
2022-08-05T14:10:08.453Z,20.04
2022-08-05T14:12:36.267Z,19.99
2022-08-05T14:16:04.017Z,20.00
2022-08-05T14:17:51.205Z,20.01
2022-08-05T14:20:27.347Z,20.10
2022-08-05T14:22:54.726Z,20.13
2022-08-05T14:25:28.264Z,20.28
2022-08-05T14:27:56.104Z,20.45
2022-08-05T14:30:26.695Z,20.55
2022-08-05T14:32:55.354Z,20.63
2022-08-05T14:35:23.866Z,20.61
2022-08-05T14:38:04.575Z,20.55
2022-08-05T14:40:31.689Z,20.57
2022-08-05T14:43:01.869Z,20.59
2022-08-05T14:45:29.568Z,20.59
2022-08-05T14:48:02.948Z,20.64
2022-08-05T14:50:31.751Z,20.62
2022-08-05T14:53:00.260Z,20.64
2022-08-05T14:55:38.610Z,20.64
2022-08-05T14:58:11.870Z,20.78
2022-08-05T15:00:59.651Z,20.90
2022-08-05T15:03:33.208Z,21.13
2022-08-05T15:06:07.673Z,21.33
2022-08-05T15:08:59.886Z,21.41
2022-08-05T15:11:51.209Z,21.48
2022-08-05T15:14:33.425Z,21.44
2022-08-05T15:17:03.775Z,21.55
2022-08-05T15:19:31.575Z,21.79
2022-08-05T15:22:01.395Z,21.96
2022-08-05T15:24:29.146Z,22.14
2022-08-05T15:26:57.113Z,22.39
2022-08-05T15:29:30.046Z,22.46
2022-08-05T15:32:03.096Z,22.42
2022-08-05T15:34:33.847Z,22.45
2022-08-05T15:37:06.522Z,22.77
2022-08-05T15:40:58.832Z,23.03
2022-08-05T15:42:54.770Z,23.02
2022-08-05T15:45:15.060Z,22.82
2022-08-05T15:47:43.649Z,22.72
2022-08-05T15:50:15.141Z,22.75
2022-08-05T15:52:53.013Z,22.87
2022-08-05T15:55:24.488Z,23.12
2022-08-05T15:57:52.197Z,23.25
2022-08-05T16:00:26.502Z,23.40
2022-08-05T16:03:10.332Z,24.00
2022-08-05T16:06:00.704Z,25.15
2022-08-05T16:08:30.713Z,25.95
2022-08-05T16:10:58.367Z,27.00
2022-08-05T16:13:34.042Z,26.80
2022-08-05T16:16:06.266Z,26.61
2022-08-05T16:18:33.298Z,26.50
2022-08-05T16:23:53.864Z,27.83
2022-08-05T16:26:26.627Z,28.62
2022-08-05T16:28:54.474Z,28.97
2022-08-05T16:31:24.228Z,29.11
2022-08-05T16:33:53.609Z,29.18
2022-08-05T16:36:23.838Z,28.98
2022-08-05T16:38:54.979Z,29.23
2022-08-05T16:42:15.014Z,29.57
2022-08-05T16:44:11.462Z,29.28
2022-08-05T16:46:41.133Z,28.57
2022-08-05T16:49:09.980Z,28.05
2022-08-05T16:51:42.726Z,27.73
2022-08-05T16:54:27.193Z,27.38
2022-08-05T16:56:57.242Z,27.43
2022-08-05T16:59:24.604Z,27.75
2022-08-05T17:01:56.241Z,27.87
2022-08-05T17:04:28.190Z,27.94
2022-08-05T17:07:01.845Z,27.96
2022-08-05T17:09:57.647Z,28.38
2022-08-05T17:12:22.490Z,29.01
2022-08-05T17:15:11.698Z,29.49
2022-08-05T17:18:02.069Z,29.82
2022-08-05T17:20:32.757Z,29.98
2022-08-05T17:23:01.141Z,29.94
2022-08-05T17:25:34.044Z,30.09
2022-08-05T17:28:37.246Z,29.22
2022-08-05T17:31:24.067Z,28.49
2022-08-05T17:33:58.283Z,28.60
2022-08-05T17:36:32.846Z,28.63
2022-08-05T17:39:02.483Z,28.91
2022-08-05T17:42:19.766Z,29.06
2022-08-05T17:44:19.422Z,29.29
2022-08-05T17:46:59.304Z,29.26
2022-08-05T17:49:28.339Z,29.12
2022-08-05T17:52:15.615Z,28.57
2022-08-05T17:54:42.651Z,28.00
2022-08-05T17:57:12.278Z,27.86
2022-08-05T17:59:42.461Z,27.76
2022-08-05T18:02:13.680Z,27.78
2022-08-05T18:04:51.449Z,27.84
2022-08-05T18:07:23.128Z,27.94
2022-08-05T18:09:59.848Z,27.45
2022-08-05T18:12:27.885Z,26.82
2022-08-05T18:14:58.549Z,26.32
2022-08-05T18:18:01.260Z,25.70
2022-08-05T18:20:16.134Z,24.83
2022-08-05T18:22:54.206Z,24.04
2022-08-05T18:25:22.152Z,23.50
2022-08-05T18:27:52.267Z,23.10
2022-08-05T18:30:19.860Z,22.89
2022-08-05T18:32:53.306Z,22.84
2022-08-05T18:35:49.752Z,22.70
2022-08-05T18:38:09.383Z,22.66
2022-08-05T18:41:56.462Z,22.61
2022-08-05T18:43:26.439Z,22.39
2022-08-05T18:45:58.802Z,22.22
2022-08-05T18:48:30.369Z,21.96
2022-08-05T18:52:04.148Z,21.52
2022-08-05T18:54:11.606Z,21.06
2022-08-05T18:56:51.197Z,20.80
2022-08-05T18:59:42.778Z,20.45
2022-08-05T19:02:18.456Z,20.06
2022-08-05T19:05:02.949Z,19.75
2022-08-05T19:07:49.412Z,19.46
2022-08-05T19:10:27.913Z,19.21
2022-08-05T19:12:56.534Z,18.96
2022-08-05T19:15:57.869Z,18.77
2022-08-05T19:18:13.629Z,18.56
2022-08-05T19:20:49.025Z,18.38
2022-08-05T19:24:04.501Z,18.22
2022-08-05T19:26:08.518Z,18.05
2022-08-05T19:28:43.957Z,17.92
2022-08-05T19:31:13.292Z,17.80
2022-08-05T19:33:48.722Z,17.69
2022-08-05T19:36:26.317Z,17.58
2022-08-05T19:39:01.171Z,17.47
2022-08-05T19:42:06.351Z,17.36
2022-08-05T19:45:07.409Z,17.24
2022-08-05T19:48:01.633Z,17.14
2022-08-05T19:54:17.741Z,16.92
2022-08-05T19:58:19.614Z,16.84
2022-08-05T20:00:41.040Z,16.74
2022-08-05T20:04:15.085Z,16.65
2022-08-05T20:09:30.535Z,16.50
2022-08-05T20:12:27.429Z,16.45
2022-08-05T20:17:58.302Z,16.35
2022-08-05T20:20:36.221Z,16.30
2022-08-05T20:26:17.169Z,16.18
2022-08-05T20:29:27.427Z,16.11
2022-08-05T20:31:58.403Z,16.05
2022-08-05T20:34:42.235Z,16.03
2022-08-05T20:37:24.112Z,16.00
2022-08-05T20:40:00.923Z,15.96
2022-08-05T20:42:28.726Z,15.91
2022-08-05T20:44:59.032Z,15.88
2022-08-05T20:48:16.480Z,15.84
2022-08-05T20:51:10.919Z,15.77
2022-08-05T20:53:40.938Z,15.74
2022-08-05T20:56:09.647Z,15.70
2022-08-05T20:58:37.491Z,15.67
2022-08-05T21:01:11.346Z,15.64
2022-08-05T21:03:40.949Z,15.60
2022-08-05T21:06:27.966Z,15.57
2022-08-05T21:08:56.528Z,15.53
2022-08-05T21:12:07.280Z,15.51
2022-08-05T21:14:10.874Z,15.46
2022-08-05T21:16:39.817Z,15.42
2022-08-05T21:19:07.084Z,15.38
2022-08-05T21:21:39.145Z,15.34
2022-08-05T21:24:13.574Z,15.31
2022-08-05T21:26:46.062Z,15.27
2022-08-05T21:29:20.219Z,15.25
2022-08-05T21:31:51.960Z,15.22
2022-08-05T21:34:20.734Z,15.18
2022-08-05T21:36:49.289Z,15.13
2022-08-05T21:39:17.013Z,15.08
2022-08-05T21:42:02.061Z,15.03
2022-08-05T21:44:30.476Z,14.97
2022-08-05T21:46:58.563Z,14.92
2022-08-05T21:49:59.367Z,14.88
2022-08-05T21:52:28.123Z,14.84
2022-08-05T21:54:56.961Z,14.80
2022-08-05T21:57:32.645Z,14.77
2022-08-05T22:00:06.336Z,14.73
2022-08-05T22:02:34.665Z,14.68
2022-08-05T22:05:01.967Z,14.64
2022-08-05T22:07:40.436Z,14.60
2022-08-05T22:10:26.888Z,14.56
2022-08-05T22:12:57.419Z,14.52
2022-08-05T22:16:00.286Z,14.47
2022-08-05T22:18:14.353Z,14.43
2022-08-05T22:20:41.834Z,14.41
2022-08-05T22:24:00.948Z,14.38
2022-08-05T22:26:35.508Z,14.34
2022-08-05T22:29:03.658Z,14.30
2022-08-05T22:31:31.625Z,14.25
2022-08-05T22:34:12.871Z,14.20
2022-08-05T22:36:48.132Z,14.15
2022-08-05T22:39:19.831Z,14.11
2022-08-05T22:42:09.875Z,14.06
2022-08-05T22:44:36.834Z,14.01
2022-08-05T22:47:04.969Z,13.97
2022-08-05T22:50:20.742Z,13.93
2022-08-05T22:52:30.211Z,13.88
2022-08-05T22:54:59.892Z,13.83
2022-08-05T22:57:27.158Z,13.80
2022-08-05T23:00:07.933Z,13.77
2022-08-05T23:02:40.025Z,13.73
2022-08-05T23:05:14.853Z,13.68
2022-08-05T23:07:48.342Z,13.64
2022-08-05T23:10:19.651Z,13.60
2022-08-05T23:12:51.716Z,13.57
2022-08-05T23:15:22.062Z,13.54
2022-08-05T23:18:00.452Z,13.51
2022-08-05T23:20:32.334Z,13.48
2022-08-05T23:23:00.089Z,13.42
2022-08-05T23:25:52.100Z,13.36
2022-08-05T23:28:15.785Z,13.30
2022-08-05T23:30:53.310Z,13.26
2022-08-05T23:33:26.346Z,13.19
2022-08-05T23:36:10.010Z,13.14
2022-08-05T23:38:37.394Z,13.07
2022-08-05T23:41:06.964Z,13.00
2022-08-05T23:43:37.220Z,12.92
2022-08-05T23:46:22.262Z,12.87
2022-08-05T23:49:00.568Z,12.81
2022-08-05T23:51:53.486Z,12.74
2022-08-05T23:54:30.166Z,12.69
2022-08-05T23:57:04.225Z,12.64
